Terminal Aerodrome Forecast
Issued by NWS

Home | Current Version | Previous Version | Graphics & Text | Print | Product List | Glossary On
Versions: 1 2 3 4 5 6 7 8 9 10 11 12 13 14 15 16 17 18
000
FTUS43 KABR 110900 AAA
TAFATY
TAF AMD
KATY 110908Z 1109/1206 20011KT P6SM SCT015
     FM111200 20006KT P6SM OVC015
     FM111800 21004KT P6SM OVC050
     FM112100 32005KT P6SM OVC250=

USA.gov is the U.S. government's official web portal to all federal, state and local government web resources and services.